Main page
METAR-TAF:

METAR-TAF

Airports :

Seychelles International Airport

Victoria, Mahé, Seychelles

latitude: 04-40S, longitude: 055-31E, elevation: 3 m

Current weather observation

The report was made 53 minutes ago, at 20:00 UTC
Wind 5 kt from the West, varying between West/Southwest and Northwest
Temperature 28°C
Humidity 79%
Pressure 1011 hPa
Visibility 10 km or more
Few clouds at a height of 2400 ft

METAR: FSIA 212000Z 27005KT 240V310 9999 FEW024 28/24 Q1011 NOSIG

Time: 00:53 (20:53 UTC)

Forecast

The report was made 3 hours and 52 minutes ago, at 17:01 UTC
Forecast valid from 21 at 18 UTC to 22 at 18 UTC
Wind 13 kt from the North/Northwest
Visibility 10 km or more
Scattered clouds at a height of 2400 ft

TAF: FSIA 211701Z 2118/2218 33013KT 9999 SCT024

Weather observations and forecasts of more than 4000 airports (METAR and TAF reports).

The available stations are represented by yellow and red dots on the map.

Hover mouse over dot to see the name of the station.

Then click to see weather observations and forecasts.

To change the map : click on the green buttons with a black cross to zoom in, on the green button with a dash to zoom out, or on the green arrows for adjacent maps.


METAR-TAF: